createdAt,value
2023-03-15T00:00:28.551Z,1005.18
2023-03-15T00:01:28.665Z,1005.16
2023-03-15T00:02:28.559Z,1005.18
2023-03-15T00:03:28.564Z,1005.15
2023-03-15T00:04:28.472Z,1005.22
2023-03-15T00:05:28.503Z,1005.22
2023-03-15T00:06:28.434Z,1005.23
2023-03-15T00:07:28.522Z,1005.24
2023-03-15T00:08:28.432Z,1005.24
2023-03-15T00:09:28.434Z,1005.24
2023-03-15T00:10:28.404Z,1005.27
2023-03-15T00:11:28.397Z,1005.30
2023-03-15T00:12:28.375Z,1005.30
2023-03-15T00:13:28.515Z,1005.31
2023-03-15T00:14:28.372Z,1005.32
2023-03-15T00:15:28.371Z,1005.30
2023-03-15T00:16:28.305Z,1005.35
2023-03-15T00:17:28.347Z,1005.31
2023-03-15T00:18:28.273Z,1005.34
2023-03-15T00:19:28.352Z,1005.35
2023-03-15T00:20:28.274Z,1005.34
2023-03-15T00:21:28.267Z,1005.35
2023-03-15T00:22:28.253Z,1005.37
2023-03-15T00:23:28.234Z,1005.40
2023-03-15T00:24:28.198Z,1005.42
2023-03-15T00:25:28.269Z,1005.43
2023-03-15T00:26:28.175Z,1005.38
2023-03-15T00:27:28.207Z,1005.41
2023-03-15T00:28:28.170Z,1005.44
2023-03-15T00:29:28.180Z,1005.50
2023-03-15T00:30:28.120Z,1005.51
2023-03-15T00:31:28.233Z,1005.49
2023-03-15T00:32:28.163Z,1005.58
2023-03-15T00:33:28.113Z,1005.49
2023-03-15T00:34:28.096Z,1005.56
2023-03-15T00:35:28.083Z,1005.53
2023-03-15T00:36:28.042Z,1005.53
2023-03-15T00:37:28.110Z,1005.60
2023-03-15T00:38:28.023Z,1005.57
2023-03-15T00:39:28.077Z,1005.58
2023-03-15T00:40:28.032Z,1005.61
2023-03-15T00:41:28.003Z,1005.63
2023-03-15T00:42:27.986Z,1005.67
2023-03-15T00:43:28.094Z,1005.67
2023-03-15T00:44:27.954Z,1005.70
2023-03-15T00:45:27.984Z,1005.63
2023-03-15T00:46:27.970Z,1005.68
2023-03-15T00:47:27.960Z,1005.78
2023-03-15T00:48:27.915Z,1005.76
2023-03-15T00:49:28.032Z,1005.67
2023-03-15T00:50:27.905Z,1005.64
2023-03-15T00:51:27.895Z,1005.61
2023-03-15T00:52:27.838Z,1005.58
2023-03-15T00:53:27.906Z,1005.56
2023-03-15T00:54:27.807Z,1005.58
2023-03-15T00:55:27.912Z,1005.68
2023-03-15T00:56:27.802Z,1005.71
2023-03-15T00:57:27.776Z,1005.76
2023-03-15T00:58:27.782Z,1005.66
2023-03-15T00:59:27.757Z,1005.68
2023-03-15T01:00:27.740Z,1005.75
2023-03-15T01:01:27.871Z,1005.92
2023-03-15T01:03:39.663Z,1005.85
2023-03-15T01:04:38.738Z,1005.84
2023-03-15T01:05:38.701Z,1005.76
2023-03-15T01:06:38.763Z,1005.87
2023-03-15T01:07:38.681Z,1005.91
2023-03-15T01:08:38.672Z,1005.89
2023-03-15T01:09:38.675Z,1005.78
2023-03-15T01:10:38.663Z,1005.86
2023-03-15T01:11:38.657Z,1005.87
2023-03-15T01:12:38.668Z,1005.80
2023-03-15T01:13:38.595Z,1005.87
2023-03-15T01:14:38.598Z,1005.87
2023-03-15T01:15:38.590Z,1005.92
2023-03-15T01:16:38.589Z,1005.85
2023-03-15T01:17:38.535Z,1005.89
2023-03-15T01:18:38.583Z,1005.91
2023-03-15T01:19:38.504Z,1005.92
2023-03-15T01:20:38.526Z,1005.81
2023-03-15T01:21:38.502Z,1005.89
2023-03-15T01:22:38.493Z,1005.82
2023-03-15T01:23:38.481Z,1005.89
2023-03-15T01:24:38.513Z,1005.89
2023-03-15T01:25:38.440Z,1005.89
2023-03-15T01:26:38.470Z,1005.93
2023-03-15T01:27:38.424Z,1005.94
2023-03-15T01:30:15.567Z,1005.96
2023-03-15T01:30:49.892Z,1005.98
2023-03-15T01:31:49.445Z,1006.03
2023-03-15T01:32:49.378Z,1006.03
2023-03-15T01:33:49.382Z,1006.12
2023-03-15T01:34:49.365Z,1006.10
2023-03-15T01:35:49.395Z,1006.05
2023-03-15T01:36:49.348Z,1006.03
2023-03-15T01:37:49.307Z,1006.10
2023-03-15T01:38:49.281Z,1006.11
2023-03-15T01:39:49.304Z,1006.13
2023-03-15T01:40:49.265Z,1006.11
2023-03-15T01:41:49.328Z,1006.12
2023-03-15T01:42:49.264Z,1006.10
2023-03-15T01:43:49.248Z,1006.14
2023-03-15T01:44:49.239Z,1006.19
2023-03-15T01:45:49.213Z,1006.20
2023-03-15T01:46:49.296Z,1006.18
2023-03-15T01:47:49.329Z,1006.18
2023-03-15T01:48:49.168Z,1006.25
2023-03-15T01:49:49.195Z,1006.20
2023-03-15T01:50:49.167Z,1006.22
2023-03-15T01:51:49.160Z,1006.28
2023-03-15T01:52:49.144Z,1006.31
2023-03-15T01:53:49.140Z,1006.26
2023-03-15T01:54:49.088Z,1006.28
2023-03-15T01:55:49.105Z,1006.32
2023-03-15T01:56:49.062Z,1006.28
2023-03-15T01:57:49.092Z,1006.29
2023-03-15T01:58:49.059Z,1006.28
2023-03-15T01:59:49.142Z,1006.28
2023-03-15T02:00:49.049Z,1006.25
2023-03-15T02:01:49.089Z,1006.28
2023-03-15T02:02:49.015Z,1006.29
2023-03-15T02:03:48.992Z,1006.31
2023-03-15T02:04:48.992Z,1006.33
2023-03-15T02:05:49.074Z,1006.31
2023-03-15T02:06:48.935Z,1006.34
2023-03-15T02:07:48.949Z,1006.39
2023-03-15T02:08:49.869Z,1006.38
2023-03-15T02:09:48.925Z,1006.41
2023-03-15T02:10:48.901Z,1006.42
2023-03-15T02:11:48.923Z,1006.43
2023-03-15T02:12:48.880Z,1006.46
2023-03-15T02:13:48.872Z,1006.41
2023-03-15T02:14:48.824Z,1006.43
2023-03-15T02:15:48.910Z,1006.48
2023-03-15T02:16:48.868Z,1006.47
2023-03-15T02:17:48.964Z,1006.48
2023-03-15T02:18:48.776Z,1006.48
2023-03-15T02:19:48.812Z,1006.44
2023-03-15T02:20:48.747Z,1006.51
2023-03-15T02:21:48.784Z,1006.53
2023-03-15T02:22:48.749Z,1006.52
2023-03-15T02:23:48.870Z,1006.51
2023-03-15T02:24:48.723Z,1006.53
2023-03-15T02:25:48.711Z,1006.56
2023-03-15T02:26:48.669Z,1006.58
2023-03-15T02:27:48.696Z,1006.61
2023-03-15T02:28:48.650Z,1006.60
2023-03-15T02:29:48.715Z,1006.58
2023-03-15T02:30:48.626Z,1006.55
2023-03-15T02:31:48.667Z,1006.64
2023-03-15T02:32:48.670Z,1006.67
2023-03-15T02:33:48.608Z,1006.63
2023-03-15T02:34:48.569Z,1006.67
2023-03-15T02:35:48.637Z,1006.67
2023-03-15T02:36:48.555Z,1006.68
2023-03-15T02:37:48.541Z,1006.68
2023-03-15T02:38:48.502Z,1006.66
2023-03-15T02:39:48.548Z,1006.62
2023-03-15T02:40:48.487Z,1006.62
2023-03-15T02:41:48.550Z,1006.65
2023-03-15T02:42:48.469Z,1006.69
2023-03-15T02:43:48.472Z,1006.63
2023-03-15T02:44:48.473Z,1006.62
2023-03-15T02:45:48.449Z,1006.64
2023-03-15T02:46:48.433Z,1006.66
2023-03-15T02:47:48.483Z,1006.65
2023-03-15T02:48:48.413Z,1006.62
2023-03-15T02:49:48.381Z,1006.70
2023-03-15T02:50:48.389Z,1006.79
2023-03-15T02:51:48.324Z,1006.77
2023-03-15T02:52:48.361Z,1006.75
2023-03-15T02:53:48.424Z,1006.83
2023-03-15T02:54:48.316Z,1006.85
2023-03-15T02:55:48.318Z,1006.75
2023-03-15T02:56:48.297Z,1006.76
2023-03-15T02:57:48.291Z,1006.84
2023-03-15T02:58:48.316Z,1006.82
2023-03-15T02:59:48.269Z,1006.82
2023-03-15T03:00:48.277Z,1006.90
2023-03-15T03:01:48.231Z,1006.81
2023-03-15T03:02:48.998Z,1006.94
2023-03-15T03:03:48.195Z,1006.89
2023-03-15T03:04:49.066Z,1006.91
2023-03-15T03:05:48.289Z,1006.93
2023-03-15T03:06:48.175Z,1006.90
2023-03-15T03:07:48.162Z,1006.92
2023-03-15T03:08:48.149Z,1006.94
2023-03-15T03:09:48.138Z,1006.89
2023-03-15T03:10:48.148Z,1006.93
2023-03-15T03:11:48.111Z,1006.95
2023-03-15T03:12:48.119Z,1006.94
2023-03-15T03:13:48.054Z,1007.02
2023-03-15T03:14:48.085Z,1006.99
2023-03-15T03:15:48.060Z,1007.10
2023-03-15T03:16:48.055Z,1007.01
2023-03-15T03:17:48.030Z,1007.12
2023-03-15T03:18:48.045Z,1007.25
2023-03-15T03:19:47.952Z,1007.16
2023-03-15T03:20:48.118Z,1007.15
2023-03-15T03:21:47.955Z,1007.25
2023-03-15T03:22:47.978Z,1007.25
2023-03-15T03:23:47.934Z,1007.26
2023-03-15T03:24:47.939Z,1007.24
2023-03-15T03:25:47.891Z,1007.23
2023-03-15T03:26:47.921Z,1007.24
2023-03-15T03:27:47.886Z,1007.28
2023-03-15T03:28:47.879Z,1007.35
2023-03-15T03:29:47.897Z,1007.31
2023-03-15T03:30:47.904Z,1007.33
2023-03-15T03:31:47.818Z,1007.34
2023-03-15T03:32:47.899Z,1007.44
2023-03-15T03:33:47.776Z,1007.48
2023-03-15T03:34:47.799Z,1007.50
2023-03-15T03:35:47.854Z,1007.42
2023-03-15T03:36:47.799Z,1007.46
2023-03-15T03:37:47.731Z,1007.53
2023-03-15T03:38:47.742Z,1007.58
2023-03-15T03:39:47.728Z,1007.53
2023-03-15T03:40:47.724Z,1007.49
2023-03-15T03:41:47.726Z,1007.60
2023-03-15T03:42:47.726Z,1007.67
2023-03-15T03:43:47.654Z,1007.64
2023-03-15T03:44:47.692Z,1007.62
2023-03-15T03:45:47.634Z,1007.72
2023-03-15T03:46:47.630Z,1007.70
2023-03-15T03:47:47.738Z,1007.77
2023-03-15T03:48:47.615Z,1007.74
2023-03-15T03:49:47.588Z,1007.81
2023-03-15T03:50:47.605Z,1007.75
2023-03-15T03:51:47.561Z,1007.75
2023-03-15T03:52:47.589Z,1007.73
2023-03-15T03:53:47.542Z,1007.73
2023-03-15T03:54:47.534Z,1007.76
2023-03-15T03:55:47.524Z,1007.78
2023-03-15T03:56:47.501Z,1007.80
2023-03-15T03:57:47.486Z,1007.79
2023-03-15T03:58:47.488Z,1007.82
2023-03-15T03:59:47.467Z,1007.80
2023-03-15T04:00:47.478Z,1007.83
2023-03-15T04:01:47.403Z,1007.97
2023-03-15T04:02:47.484Z,1007.93
2023-03-15T04:03:47.399Z,1007.92
2023-03-15T04:04:47.461Z,1007.95
2023-03-15T04:05:47.403Z,1007.96
2023-03-15T04:06:47.399Z,1007.93
2023-03-15T04:07:47.332Z,1008.02
2023-03-15T04:08:47.341Z,1008.08
2023-03-15T04:09:47.332Z,1008.08
2023-03-15T04:10:47.354Z,1008.14
2023-03-15T04:11:47.306Z,1008.09
2023-03-15T04:12:47.309Z,1008.12
2023-03-15T04:13:47.245Z,1008.17
2023-03-15T04:14:47.269Z,1008.19
2023-03-15T04:15:47.274Z,1008.23
2023-03-15T04:16:47.236Z,1008.16
2023-03-15T04:17:47.275Z,1008.23
2023-03-15T04:18:47.243Z,1008.24
2023-03-15T04:19:47.215Z,1008.21
2023-03-15T04:20:47.190Z,1008.26
2023-03-15T04:21:47.161Z,1008.15
2023-03-15T04:22:47.147Z,1008.22
2023-03-15T04:23:47.234Z,1008.26
2023-03-15T04:24:47.152Z,1008.30
2023-03-15T04:25:47.087Z,1008.29
2023-03-15T04:26:47.102Z,1008.35
2023-03-15T04:27:47.094Z,1008.31
2023-03-15T04:28:47.081Z,1008.35
2023-03-15T04:29:47.107Z,1008.34
2023-03-15T04:30:47.090Z,1008.31
2023-03-15T04:31:47.015Z,1008.30
2023-03-15T04:32:47.190Z,1008.34
2023-03-15T04:33:46.994Z,1008.30
2023-03-15T04:34:47.003Z,1008.37
2023-03-15T04:35:47.052Z,1008.40
2023-03-15T04:36:46.984Z,1008.42
2023-03-15T04:37:46.971Z,1008.44
2023-03-15T04:38:46.985Z,1008.45
2023-03-15T04:39:46.921Z,1008.45
2023-03-15T04:40:46.916Z,1008.53
2023-03-15T04:41:47.019Z,1008.54
2023-03-15T04:42:46.933Z,1008.53
2023-03-15T04:43:46.858Z,1008.58
2023-03-15T04:44:46.906Z,1008.57
2023-03-15T04:45:46.836Z,1008.58
2023-03-15T04:46:47.028Z,1008.60
2023-03-15T04:47:46.879Z,1008.54
2023-03-15T04:48:46.820Z,1008.53
2023-03-15T04:49:46.814Z,1008.54
2023-03-15T04:50:46.835Z,1008.55
2023-03-15T04:51:46.760Z,1008.57
2023-03-15T04:52:46.798Z,1008.57
2023-03-15T04:53:46.771Z,1008.58
2023-03-15T04:54:46.740Z,1008.63
2023-03-15T04:55:46.727Z,1008.67
2023-03-15T04:56:46.727Z,1008.68
2023-03-15T04:57:47.422Z,1008.67
2023-03-15T04:58:46.703Z,1008.71
2023-03-15T04:59:46.755Z,1008.74
2023-03-15T05:00:46.746Z,1008.71
2023-03-15T05:01:46.621Z,1008.74
2023-03-15T05:02:46.624Z,1008.71
2023-03-15T05:03:46.622Z,1008.72
2023-03-15T05:04:46.629Z,1008.82
2023-03-15T05:05:46.718Z,1008.79
2023-03-15T05:06:46.618Z,1008.83
2023-03-15T05:07:46.544Z,1008.86
2023-03-15T05:08:46.596Z,1008.90
2023-03-15T05:09:46.524Z,1008.84
2023-03-15T05:10:47.237Z,1008.87
2023-03-15T05:11:46.643Z,1008.88
2023-03-15T05:12:46.535Z,1008.97
2023-03-15T05:13:46.452Z,1008.96
2023-03-15T05:14:46.491Z,1008.94
2023-03-15T05:15:46.459Z,1008.93
2023-03-15T05:16:46.445Z,1009.01
2023-03-15T05:17:46.524Z,1008.98
2023-03-15T05:18:46.437Z,1009.10
2023-03-15T05:19:46.377Z,1009.08
2023-03-15T05:20:46.410Z,1009.09
2023-03-15T05:21:46.342Z,1009.13
2023-03-15T05:22:46.357Z,1009.16
2023-03-15T05:23:46.365Z,1009.17
2023-03-15T05:24:46.343Z,1009.20
2023-03-15T05:25:46.314Z,1009.15
2023-03-15T05:26:46.336Z,1009.18
2023-03-15T05:27:46.267Z,1009.21
2023-03-15T05:28:46.280Z,1009.20
2023-03-15T05:29:46.390Z,1009.24
2023-03-15T05:30:46.275Z,1009.25
2023-03-15T05:31:46.244Z,1009.27
2023-03-15T05:32:47.141Z,1009.22
2023-03-15T05:33:46.181Z,1009.27
2023-03-15T05:34:46.207Z,1009.28
2023-03-15T05:35:46.253Z,1009.26
2023-03-15T05:36:46.173Z,1009.34
2023-03-15T05:37:46.155Z,1009.31
2023-03-15T05:38:46.168Z,1009.32
2023-03-15T05:39:46.116Z,1009.36
2023-03-15T05:40:46.145Z,1009.37
2023-03-15T05:41:46.119Z,1009.42
2023-03-15T05:42:46.090Z,1009.38
2023-03-15T05:43:46.080Z,1009.43
2023-03-15T05:44:46.089Z,1009.49
2023-03-15T05:45:46.081Z,1009.46
2023-03-15T05:46:46.046Z,1009.48
2023-03-15T05:47:46.129Z,1009.54
2023-03-15T05:48:46.011Z,1009.55
2023-03-15T05:49:46.000Z,1009.60
2023-03-15T05:50:46.014Z,1009.60
2023-03-15T05:51:45.944Z,1009.63
2023-03-15T05:52:45.993Z,1009.65
2023-03-15T05:53:46.436Z,1009.70
2023-03-15T05:54:45.939Z,1009.73
2023-03-15T05:55:45.920Z,1009.74
2023-03-15T05:56:45.923Z,1009.76
2023-03-15T05:57:45.887Z,1009.76
2023-03-15T05:58:45.904Z,1009.77
2023-03-15T05:59:45.873Z,1009.83
2023-03-15T06:00:45.889Z,1009.85
2023-03-15T06:01:45.823Z,1009.85
2023-03-15T06:02:45.842Z,1009.86
2023-03-15T06:03:45.958Z,1009.90
2023-03-15T06:04:45.791Z,1009.93
2023-03-15T06:05:45.892Z,1009.93
2023-03-15T06:06:45.795Z,1009.96
2023-03-15T06:07:45.734Z,1009.98
2023-03-15T06:08:45.782Z,1009.95
2023-03-15T06:09:46.704Z,1010.01
2023-03-15T06:10:45.719Z,1009.99
2023-03-15T06:11:45.822Z,1010.01
2023-03-15T06:12:45.698Z,1010.06
2023-03-15T06:13:45.679Z,1010.02
2023-03-15T06:14:45.693Z,1010.06
2023-03-15T06:15:45.622Z,1010.01
2023-03-15T06:16:45.692Z,1010.08
2023-03-15T06:17:45.660Z,1010.06
2023-03-15T06:18:45.639Z,1010.07
2023-03-15T06:19:45.573Z,1010.13
2023-03-15T06:20:45.611Z,1010.14
2023-03-15T06:21:45.549Z,1010.17
2023-03-15T06:22:45.563Z,1010.18
2023-03-15T06:23:45.577Z,1010.17
2023-03-15T06:24:45.534Z,1010.20
2023-03-15T06:25:45.529Z,1010.24
2023-03-15T06:26:45.532Z,1010.21
2023-03-15T06:27:45.474Z,1010.26
2023-03-15T06:28:45.503Z,1010.27
2023-03-15T06:29:45.548Z,1010.29
2023-03-15T06:30:45.497Z,1010.33
2023-03-15T06:31:45.442Z,1010.32
2023-03-15T06:32:45.510Z,1010.32
2023-03-15T06:33:45.386Z,1010.38
2023-03-15T06:34:45.397Z,1010.38
2023-03-15T06:35:45.437Z,1010.40
2023-03-15T06:36:45.379Z,1010.41
2023-03-15T06:37:45.370Z,1010.47
2023-03-15T06:38:45.376Z,1010.47
2023-03-15T06:39:45.320Z,1010.50
2023-03-15T06:40:45.344Z,1010.50
2023-03-15T06:41:45.317Z,1010.53
2023-03-15T06:42:45.302Z,1010.57
2023-03-15T06:43:45.275Z,1010.54
2023-03-15T06:44:45.268Z,1010.61
2023-03-15T06:45:45.299Z,1010.63
2023-03-15T06:46:45.289Z,1010.67
2023-03-15T06:47:45.229Z,1010.68
2023-03-15T06:48:45.216Z,1010.70
2023-03-15T06:49:45.198Z,1010.73
2023-03-15T06:50:47.666Z,1010.77
2023-03-15T06:51:45.154Z,1010.81
2023-03-15T06:52:45.189Z,1010.79
2023-03-15T06:53:45.239Z,1010.84
2023-03-15T06:54:45.131Z,1010.89
2023-03-15T06:55:45.120Z,1010.90
2023-03-15T06:56:45.113Z,1010.90
2023-03-15T06:57:45.101Z,1010.91
2023-03-15T06:58:45.116Z,1010.91
2023-03-15T06:59:45.076Z,1010.98
2023-03-15T07:00:45.092Z,1010.94
2023-03-15T07:01:45.055Z,1010.95
2023-03-15T07:02:45.078Z,1010.98
2023-03-15T07:03:45.018Z,1010.99
2023-03-15T07:04:45.005Z,1011.00
2023-03-15T07:05:45.032Z,1011.01
2023-03-15T07:06:44.964Z,1011.03
2023-03-15T07:07:44.994Z,1011.03
2023-03-15T07:08:44.937Z,1011.09
2023-03-15T07:09:44.966Z,1011.09
2023-03-15T07:10:44.927Z,1011.12
2023-03-15T07:11:44.937Z,1011.07
2023-03-15T07:12:44.904Z,1011.09
2023-03-15T07:13:44.897Z,1011.12
2023-03-15T07:14:44.855Z,1011.17
2023-03-15T07:15:44.902Z,1011.19
2023-03-15T07:16:44.829Z,1011.20
2023-03-15T07:17:44.905Z,1011.23
2023-03-15T07:18:44.828Z,1011.18
2023-03-15T07:19:55.951Z,1011.17
2023-03-15T07:20:45.772Z,1011.27
2023-03-15T07:21:44.811Z,1011.22
2023-03-15T07:22:44.769Z,1011.21
2023-03-15T07:23:44.786Z,1011.29
2023-03-15T07:24:44.738Z,1011.26
2023-03-15T07:25:54.427Z,1011.30
2023-03-15T07:26:45.692Z,1011.31
2023-03-15T07:27:44.738Z,1011.24
2023-03-15T07:28:44.701Z,1011.26
2023-03-15T07:29:44.900Z,1011.28
2023-03-15T07:30:44.702Z,1011.25
2023-03-15T07:31:44.720Z,1011.24
2023-03-15T07:32:44.722Z,1011.27
2023-03-15T07:33:44.647Z,1011.29
2023-03-15T07:34:44.606Z,1011.30
2023-03-15T07:35:44.720Z,1011.31
2023-03-15T07:36:44.617Z,1011.30
2023-03-15T07:37:44.983Z,1011.29
2023-03-15T07:38:44.550Z,1011.28
2023-03-15T07:39:44.584Z,1011.30
2023-03-15T07:40:44.516Z,1011.30
2023-03-15T07:41:44.602Z,1011.30
2023-03-15T07:42:44.558Z,1011.31
2023-03-15T07:43:44.508Z,1011.38
2023-03-15T07:44:44.499Z,1011.36
2023-03-15T07:45:44.483Z,1011.33
2023-03-15T07:46:44.469Z,1011.39
2023-03-15T07:47:44.522Z,1011.43
2023-03-15T07:48:44.416Z,1011.44
2023-03-15T07:49:44.439Z,1011.42
2023-03-15T07:50:44.422Z,1011.49
2023-03-15T07:51:44.401Z,1011.47
2023-03-15T07:52:44.352Z,1011.53
2023-03-15T07:53:44.495Z,1011.50
2023-03-15T07:54:44.356Z,1011.44
2023-03-15T07:55:44.355Z,1011.47
2023-03-15T07:56:44.341Z,1011.49
2023-03-15T07:57:44.331Z,1011.51
2023-03-15T07:58:44.286Z,1011.53
2023-03-15T07:59:44.443Z,1011.53
2023-03-15T08:00:44.257Z,1011.60
2023-03-15T08:01:44.311Z,1011.63
2023-03-15T08:02:44.311Z,1011.66
2023-03-15T08:03:44.228Z,1011.62
2023-03-15T08:04:44.232Z,1011.63
2023-03-15T08:05:44.237Z,1011.67
2023-03-15T08:06:44.179Z,1011.65
2023-03-15T08:07:44.214Z,1011.72
2023-03-15T08:08:44.138Z,1011.72
2023-03-15T08:09:44.198Z,1011.73
2023-03-15T08:10:44.137Z,1011.74
2023-03-15T08:11:45.337Z,1011.73
2023-03-15T08:12:44.140Z,1011.83
2023-03-15T08:13:44.120Z,1011.87
2023-03-15T08:14:44.068Z,1011.85
2023-03-15T08:15:44.106Z,1011.84
2023-03-15T08:16:44.119Z,1011.88
2023-03-15T08:17:44.100Z,1011.88
2023-03-15T08:18:44.048Z,1011.95
2023-03-15T08:19:44.022Z,1011.95
2023-03-15T08:20:44.039Z,1011.96
2023-03-15T08:21:43.983Z,1012.02
2023-03-15T08:22:43.965Z,1011.98
2023-03-15T08:23:44.039Z,1012.07
2023-03-15T08:24:43.989Z,1012.06
2023-03-15T08:25:43.958Z,1012.06
2023-03-15T08:26:43.913Z,1012.09
2023-03-15T08:27:43.952Z,1012.08
2023-03-15T08:28:43.892Z,1012.16
2023-03-15T08:29:43.950Z,1012.19
2023-03-15T08:30:43.883Z,1012.17
2023-03-15T08:31:43.913Z,1012.13
2023-03-15T08:32:43.905Z,1012.20
2023-03-15T08:33:43.835Z,1012.20
2023-03-15T08:34:43.798Z,1012.18
2023-03-15T08:35:43.940Z,1012.21
2023-03-15T08:36:43.803Z,1012.22
2023-03-15T08:37:43.814Z,1012.30
2023-03-15T08:38:43.763Z,1012.26
2023-03-15T08:39:43.779Z,1012.28
2023-03-15T08:40:43.727Z,1012.33
2023-03-15T08:41:44.625Z,1012.36
2023-03-15T08:42:43.734Z,1012.35
2023-03-15T08:43:43.696Z,1012.38
2023-03-15T08:44:43.687Z,1012.37
2023-03-15T08:46:02.381Z,1012.44
2023-03-15T08:46:44.786Z,1012.45
2023-03-15T08:47:43.694Z,1012.50
2023-03-15T08:48:43.623Z,1012.49
2023-03-15T08:49:43.654Z,1012.44
2023-03-15T08:50:44.576Z,1012.43
2023-03-15T08:51:43.618Z,1012.49
2023-03-15T08:52:43.860Z,1012.46
2023-03-15T08:53:43.577Z,1012.49
2023-03-15T08:54:43.530Z,1012.53
2023-03-15T08:55:43.576Z,1012.54
2023-03-15T08:56:43.539Z,1012.53
2023-03-15T08:57:43.566Z,1012.49
2023-03-15T08:58:43.517Z,1012.58
2023-03-15T08:59:43.739Z,1012.56
2023-03-15T09:00:43.621Z,1012.55
2023-03-15T09:01:43.517Z,1012.51
2023-03-15T09:02:43.502Z,1012.52
2023-03-15T09:03:43.446Z,1012.49
2023-03-15T09:04:43.594Z,1012.51
2023-03-15T09:05:43.433Z,1012.56
2023-03-15T09:06:43.400Z,1012.54
2023-03-15T09:07:43.418Z,1012.66
2023-03-15T09:08:43.350Z,1012.49
2023-03-15T09:09:43.386Z,1012.58
2023-03-15T09:10:43.388Z,1012.56
2023-03-15T09:11:43.343Z,1012.57
2023-03-15T09:12:43.315Z,1012.54
2023-03-15T09:13:43.327Z,1012.55
2023-03-15T09:14:43.256Z,1012.55
2023-03-15T09:15:43.281Z,1012.63
2023-03-15T09:16:43.439Z,1012.59
2023-03-15T09:17:43.280Z,1012.58
2023-03-15T09:18:43.273Z,1012.60
2023-03-15T09:19:43.213Z,1012.58
2023-03-15T09:20:43.210Z,1012.57
2023-03-15T09:21:44.896Z,1012.55
2023-03-15T09:22:43.197Z,1012.63
2023-03-15T09:23:43.204Z,1012.68
2023-03-15T09:24:43.123Z,1012.65
2023-03-15T09:25:43.228Z,1012.62
2023-03-15T09:26:43.128Z,1012.62
2023-03-15T09:27:43.119Z,1012.58
2023-03-15T09:28:43.108Z,1012.64
2023-03-15T09:29:43.115Z,1012.64
2023-03-15T09:30:43.151Z,1012.72
2023-03-15T09:31:43.082Z,1012.69
2023-03-15T09:32:43.136Z,1012.75
2023-03-15T09:33:43.045Z,1012.82
2023-03-15T09:34:43.034Z,1012.78
2023-03-15T09:35:43.107Z,1012.82
2023-03-15T09:36:42.997Z,1012.76
2023-03-15T09:37:43.031Z,1012.83
2023-03-15T09:38:42.986Z,1012.82
2023-03-15T09:39:42.949Z,1012.78
2023-03-15T09:40:43.023Z,1012.88
2023-03-15T09:41:42.933Z,1012.80
2023-03-15T09:42:42.950Z,1012.89
2023-03-15T09:43:42.939Z,1012.83
2023-03-15T09:44:42.903Z,1012.82
2023-03-15T09:45:42.887Z,1012.85
2023-03-15T09:46:43.000Z,1012.85
2023-03-15T09:47:42.897Z,1012.86
2023-03-15T09:48:42.809Z,1012.85
2023-03-15T09:49:42.867Z,1012.81
2023-03-15T09:50:42.825Z,1012.78
2023-03-15T09:51:42.815Z,1012.77
2023-03-15T09:52:42.807Z,1012.81
2023-03-15T09:53:42.788Z,1012.78
2023-03-15T09:54:42.759Z,1012.87
2023-03-15T09:55:42.779Z,1012.82
2023-03-15T09:56:42.715Z,1012.83
2023-03-15T09:57:42.762Z,1012.77
2023-03-15T09:58:42.830Z,1012.84
2023-03-15T09:59:43.946Z,1012.83
2023-03-15T10:00:42.663Z,1012.79
2023-03-15T10:01:42.717Z,1012.92
2023-03-15T10:02:42.651Z,1012.94
2023-03-15T10:03:42.738Z,1012.88
2023-03-15T10:04:42.681Z,1012.89
2023-03-15T10:05:42.647Z,1012.99
2023-03-15T10:06:42.676Z,1012.89
2023-03-15T10:07:42.617Z,1012.87
2023-03-15T10:08:42.566Z,1012.87
2023-03-15T10:09:42.614Z,1012.91
2023-03-15T10:10:42.572Z,1012.90
2023-03-15T10:11:42.538Z,1012.89
2023-03-15T10:12:42.566Z,1012.87
2023-03-15T10:13:42.518Z,1012.93
2023-03-15T10:14:42.489Z,1012.94
2023-03-15T10:15:42.565Z,1012.91
2023-03-15T10:16:42.468Z,1012.92
2023-03-15T10:17:42.484Z,1012.88
2023-03-15T10:18:42.456Z,1012.87
2023-03-15T10:19:42.429Z,1012.91
2023-03-15T10:20:42.417Z,1012.92
2023-03-15T10:21:42.411Z,1012.93
2023-03-15T10:22:42.451Z,1012.91
2023-03-15T10:23:42.415Z,1012.89
2023-03-15T10:24:42.336Z,1012.89
2023-03-15T10:25:42.373Z,1012.89
2023-03-15T10:26:42.339Z,1012.93
2023-03-15T10:27:42.328Z,1012.88
2023-03-15T10:28:42.354Z,1012.92
2023-03-15T10:29:42.306Z,1012.97
2023-03-15T10:30:42.253Z,1012.95
2023-03-15T10:31:44.797Z,1012.90
2023-03-15T10:32:42.316Z,1012.90
2023-03-15T10:33:42.245Z,1012.97
2023-03-15T10:34:42.227Z,1012.94
2023-03-15T10:35:42.312Z,1013.00
2023-03-15T10:36:42.196Z,1013.12
2023-03-15T10:37:42.358Z,1013.01
2023-03-15T10:38:42.176Z,1013.02
2023-03-15T10:39:42.162Z,1013.03
2023-03-15T10:40:42.260Z,1013.04
2023-03-15T10:41:42.154Z,1013.09
2023-03-15T10:42:42.094Z,1013.09
2023-03-15T10:43:42.131Z,1013.17
2023-03-15T10:44:42.066Z,1013.07
2023-03-15T10:45:42.099Z,1013.04
2023-03-15T10:46:42.132Z,1013.10
2023-03-15T10:47:45.214Z,1013.18
2023-03-15T10:48:43.012Z,1013.15
2023-03-15T10:49:42.050Z,1012.96
2023-03-15T10:50:42.015Z,1013.08
2023-03-15T10:51:41.993Z,1013.16
2023-03-15T10:52:42.030Z,1013.12
2023-03-15T10:53:41.964Z,1013.19
2023-03-15T10:54:41.953Z,1013.11
2023-03-15T10:55:41.960Z,1013.19
2023-03-15T10:56:41.907Z,1013.22
2023-03-15T10:57:42.004Z,1013.22
2023-03-15T10:58:41.932Z,1013.14
2023-03-15T10:59:41.874Z,1013.11
2023-03-15T11:00:41.870Z,1013.09
2023-03-15T11:01:41.899Z,1013.20
2023-03-15T11:02:41.852Z,1013.21
2023-03-15T11:03:41.864Z,1013.17
2023-03-15T11:04:41.859Z,1013.22
2023-03-15T11:05:41.807Z,1013.24
2023-03-15T11:06:41.802Z,1013.31
2023-03-15T11:07:41.854Z,1013.22
2023-03-15T11:08:41.744Z,1013.21
2023-03-15T11:09:41.792Z,1013.21
2023-03-15T11:10:41.779Z,1013.19
2023-03-15T11:11:41.729Z,1013.27
2023-03-15T11:12:41.714Z,1013.28
2023-03-15T11:13:41.671Z,1013.27
2023-03-15T11:14:41.686Z,1013.30
2023-03-15T11:15:41.697Z,1013.29
2023-03-15T11:16:41.669Z,1013.28
2023-03-15T11:17:41.682Z,1013.39
2023-03-15T11:18:41.637Z,1013.38
2023-03-15T11:19:41.625Z,1013.31
2023-03-15T11:20:41.623Z,1013.46
2023-03-15T11:21:41.591Z,1013.47
2023-03-15T11:22:41.753Z,1013.51
2023-03-15T11:23:41.545Z,1013.47
2023-03-15T11:24:41.646Z,1013.52
2023-03-15T11:25:41.504Z,1013.62
2023-03-15T11:26:41.533Z,1013.57
2023-03-15T11:27:41.509Z,1013.59
2023-03-15T11:28:41.524Z,1013.56
2023-03-15T11:29:41.480Z,1013.67
2023-03-15T11:30:41.507Z,1013.64
2023-03-15T11:31:41.491Z,1013.68
2023-03-15T11:32:41.498Z,1013.66
2023-03-15T11:33:41.406Z,1013.73
2023-03-15T11:34:41.565Z,1013.71
2023-03-15T11:35:41.420Z,1013.71
2023-03-15T11:36:41.424Z,1013.76
2023-03-15T11:37:41.363Z,1013.79
2023-03-15T11:38:41.362Z,1013.79
2023-03-15T11:39:41.353Z,1013.81
2023-03-15T11:40:41.374Z,1013.99
2023-03-15T11:41:41.335Z,1014.18
2023-03-15T11:42:41.346Z,1014.12
2023-03-15T11:43:41.278Z,1014.09
2023-03-15T11:44:41.332Z,1014.01
2023-03-15T11:45:41.261Z,1013.90
2023-03-15T11:46:41.318Z,1014.13
2023-03-15T11:47:41.241Z,1014.28
2023-03-15T11:48:41.250Z,1014.36
2023-03-15T11:49:41.209Z,1014.30
2023-03-15T11:50:41.284Z,1014.33
2023-03-15T11:51:41.207Z,1014.37
2023-03-15T11:52:41.318Z,1014.37
2023-03-15T11:53:41.170Z,1014.49
2023-03-15T11:54:41.193Z,1014.47
2023-03-15T11:55:41.114Z,1014.52
2023-03-15T11:56:41.147Z,1014.57
2023-03-15T11:57:41.083Z,1014.51
2023-03-15T11:58:41.194Z,1014.57
2023-03-15T11:59:41.116Z,1014.26
2023-03-15T12:00:41.074Z,1014.52
2023-03-15T12:01:41.055Z,1014.52
2023-03-15T12:02:41.167Z,1014.58
2023-03-15T12:03:41.059Z,1014.57
2023-03-15T12:04:41.090Z,1014.53
2023-03-15T12:05:40.987Z,1014.52
2023-03-15T12:06:40.995Z,1014.50
2023-03-15T12:07:40.985Z,1014.47